Time;durP1;ratioP1;P1;durP2;ratioP2;P2;SDS_P1;SDS_P2;PMS_P1;PMS_P2;Temp;Humidity;BMP_temperature;BMP_pressure;BME280_temperature;BME280_humidity;BME280_pressure;Samples;Min_cycle;Max_cycle;Signal;HPM_P1;HPM_P2
2021/05/24 00:01:46;;;;;;;3.57;2.70;;;;;;;9.33;60.04;100487.66;153954;1101;103113;-78
2021/05/24 00:04:49;;;;;;;3.80;2.80;;;;;;;9.30;60.31;100495.94;153917;1094;103221;-77
2021/05/24 00:07:53;;;;;;;4.10;3.23;;;;;;;9.31;60.54;100489.61;154033;1101;103232;-76
2021/05/24 00:10:57;;;;;;;5.03;2.90;;;;;;;9.33;60.46;100502.80;154037;1096;103262;-76
2021/05/24 00:14:03;;;;;;;5.13;2.87;;;;;;;9.30;60.51;100501.27;153983;1096;103219;-76
2021/05/24 00:17:07;;;;;;;3.28;2.43;;;;;;;9.26;60.72;100507.84;153981;1101;103221;-77
2021/05/24 00:20:12;;;;;;;3.40;2.60;;;;;;;9.20;60.89;100508.41;153987;1101;103133;-79
2021/05/24 00:23:16;;;;;;;3.93;2.53;;;;;;;9.17;60.84;100504.18;153966;1096;103142;-79
2021/05/24 00:26:20;;;;;;;3.50;2.43;;;;;;;9.14;60.56;100511.59;153978;1096;103251;-76
2021/05/24 00:29:25;;;;;;;2.70;2.20;;;;;;;9.09;60.78;100505.86;153971;1101;103230;-78
2021/05/24 00:32:28;;;;;;;3.50;2.50;;;;;;;9.05;60.67;100513.27;153959;1094;103145;-79
2021/05/24 00:35:33;;;;;;;3.87;2.43;;;;;;;9.00;60.96;100516.33;154006;1101;103200;-78
2021/05/24 00:38:37;;;;;;;2.70;2.00;;;;;;;8.97;60.79;100515.78;153993;1096;103125;-79
2021/05/24 00:41:42;;;;;;;3.60;2.30;;;;;;;8.90;60.45;100523.45;153950;1101;103219;-76
2021/05/24 00:44:46;;;;;;;3.63;2.10;;;;;;;8.86;60.61;100532.69;153996;1101;103128;-76
2021/05/24 00:47:50;;;;;;;5.03;2.15;;;;;;;8.83;60.65;100523.17;154007;1101;103144;-76
2021/05/24 00:50:53;;;;;;;2.97;1.97;;;;;;;8.83;60.48;100525.83;153914;1094;103141;-76
2021/05/24 00:53:57;;;;;;;3.63;2.53;;;;;;;8.83;60.66;100525.83;153967;1101;103227;-76
2021/05/24 00:57:01;;;;;;;4.30;2.80;;;;;;;8.84;60.23;100527.50;153959;1101;103325;-75
2021/05/24 01:00:09;;;;;;;4.87;2.77;;;;;;;8.82;60.97;100533.94;154051;1094;103202;-76
2021/05/24 01:03:14;;;;;;;4.60;2.80;;;;;;;8.78;60.17;100535.20;154006;1101;103048;-75
2021/05/24 01:06:22;;;;;;;4.38;3.40;;;;;;;8.75;60.46;100535.45;153961;1101;103141;-75
2021/05/24 01:09:25;;;;;;;4.13;2.70;;;;;;;8.67;60.30;100540.61;153965;1101;103124;-75
2021/05/24 01:12:29;;;;;;;3.33;2.10;;;;;;;8.61;60.33;100540.16;153968;1101;103318;-74
2021/05/24 01:15:32;;;;;;;5.00;2.68;;;;;;;8.53;61.06;100542.64;153975;1096;103174;-74
2021/05/24 01:18:36;;;;;;;3.80;2.45;;;;;;;8.43;60.88;100547.08;153932;1101;103152;-76
2021/05/24 01:21:39;;;;;;;3.48;2.70;;;;;;;8.39;60.50;100545.61;153915;1101;103195;-76
2021/05/24 01:24:43;;;;;;;3.50;2.60;;;;;;;8.33;61.15;100543.48;153949;1096;103200;-76
2021/05/24 01:27:47;;;;;;;3.95;2.70;;;;;;;8.28;61.42;100554.52;153955;1096;103129;-76
2021/05/24 01:30:53;;;;;;;3.90;2.30;;;;;;;8.24;60.96;100550.44;153982;1101;103127;-76
2021/05/24 01:33:58;;;;;;;5.08;2.90;;;;;;;8.20;61.12;100546.36;153986;1095;103221;-78
2021/05/24 01:37:02;;;;;;;3.55;2.70;;;;;;;8.18;61.02;100549.14;153960;1101;103253;-78
2021/05/24 01:40:08;;;;;;;4.73;2.40;;;;;;;8.17;60.75;100542.13;153982;1096;103200;-78
2021/05/24 01:43:12;;;;;;;5.10;2.78;;;;;;;8.09;61.10;100541.95;153959;1096;103248;-78
2021/05/24 01:46:16;;;;;;;4.17;2.70;;;;;;;8.04;61.05;100550.32;153957;1096;103482;-77
2021/05/24 01:49:19;;;;;;;3.05;2.40;;;;;;;7.97;60.82;100554.45;153930;1101;103217;-75
2021/05/24 01:52:23;;;;;;;4.60;2.60;;;;;;;7.91;60.62;100554.98;153963;1096;103563;-76
2021/05/24 01:55:27;;;;;;;2.90;2.57;;;;;;;7.84;60.83;100549.31;154027;1101;103151;-79
2021/05/24 01:58:31;;;;;;;4.00;2.30;;;;;;;7.80;60.76;100555.03;153922;1101;103306;-75
2021/05/24 02:01:35;;;;;;;5.17;2.67;;;;;;;7.84;61.18;100551.14;153939;1096;103183;-76
2021/05/24 02:04:38;;;;;;;3.70;2.38;;;;;;;7.91;60.88;100549.66;153977;1096;103136;-75
2021/05/24 02:07:43;;;;;;;4.07;2.40;;;;;;;7.92;61.34;100559.30;153937;1101;103228;-77
2021/05/24 02:10:47;;;;;;;3.35;2.30;;;;;;;7.91;60.85;100559.42;153961;1101;103120;-77
2021/05/24 02:13:51;;;;;;;4.10;2.50;;;;;;;7.90;60.81;100553.28;153943;1101;103190;-73
2021/05/24 02:16:55;;;;;;;3.60;2.80;;;;;;;7.89;60.80;100556.05;153954;1101;103178;-76
2021/05/24 02:19:59;;;;;;;3.75;2.45;;;;;;;7.84;60.80;100565.26;153995;1101;103220;-73
2021/05/24 02:23:04;;;;;;;3.35;2.50;;;;;;;7.79;61.36;100566.61;153906;1101;103222;-77
2021/05/24 02:26:08;;;;;;;3.27;2.40;;;;;;;7.74;60.60;100569.66;153997;1095;103196;-76
2021/05/24 02:29:13;;;;;;;4.15;2.50;;;;;;;7.70;60.66;100562.05;153960;1101;103269;-76
2021/05/24 02:32:17;;;;;;;5.00;3.03;;;;;;;7.64;61.31;100580.20;153988;1101;103480;-76
2021/05/24 02:35:23;;;;;;;4.40;2.77;;;;;;;7.63;60.94;100577.66;153937;1096;103216;-75
2021/05/24 02:38:27;;;;;;;4.23;2.70;;;;;;;7.60;60.63;100583.22;153937;1096;103211;-75
2021/05/24 02:41:31;;;;;;;3.90;2.60;;;;;;;7.56;61.25;100579.13;153949;1101;103227;-76
2021/05/24 02:44:34;;;;;;;3.68;2.83;;;;;;;7.46;61.39;100577.22;153936;1101;103304;-77
2021/05/24 02:47:38;;;;;;;4.78;2.88;;;;;;;7.41;60.66;100591.83;154031;1101;103502;-74
2021/05/24 02:50:42;;;;;;;3.40;2.63;;;;;;;7.38;60.80;100584.14;153934;1101;103125;-74
2021/05/24 02:53:45;;;;;;;4.60;2.73;;;;;;;7.39;61.73;100585.80;153937;1101;103569;-75
2021/05/24 02:56:49;;;;;;;4.35;3.10;;;;;;;7.41;61.00;100592.70;153927;1096;103131;-74
2021/05/24 02:59:53;;;;;;;3.80;2.77;;;;;;;7.40;61.61;100603.44;154000;1095;103733;-75
2021/05/24 03:02:57;;;;;;;5.27;3.03;;;;;;;7.36;60.93;100618.77;154067;1096;103151;-78
2021/05/24 03:06:02;;;;;;;5.35;3.30;;;;;;;7.35;61.15;100611.78;153986;1101;103573;-72
2021/05/24 03:09:07;;;;;;;4.23;3.13;;;;;;;7.37;61.54;100608.98;154150;1096;103174;-71
2021/05/24 03:12:11;;;;;;;4.57;2.93;;;;;;;7.41;61.59;100616.59;154051;1101;103125;-73
2021/05/24 03:15:16;;;;;;;4.17;3.00;;;;;;;7.50;60.96;100616.81;154048;1101;103788;-72
2021/05/24 03:18:20;;;;;;;3.90;2.50;;;;;;;7.59;61.45;100621.38;154040;1101;103115;-73
2021/05/24 03:21:23;;;;;;;5.17;2.90;;;;;;;7.75;61.48;100621.80;154048;1095;103756;-74
2021/05/24 03:24:27;;;;;;;5.83;2.77;;;;;;;7.94;61.73;100626.45;153926;1096;103221;-74
2021/05/24 03:27:31;;;;;;;4.10;2.83;;;;;;;8.21;61.30;100628.61;153937;1094;103186;-74
2021/05/24 03:30:34;;;;;;;4.00;2.90;;;;;;;8.44;61.22;100631.19;153935;1096;103193;-73
2021/05/24 03:33:38;;;;;;;3.65;2.60;;;;;;;8.70;61.54;100631.64;153960;1095;103221;-76
2021/05/24 03:36:42;;;;;;;3.25;2.70;;;;;;;8.95;61.30;100627.70;153942;1101;103557;-76
2021/05/24 03:39:45;;;;;;;4.38;2.83;;;;;;;9.17;61.45;100639.96;153943;1096;103130;-74
2021/05/24 03:42:49;;;;;;;3.70;2.77;;;;;;;9.39;61.29;100641.59;153954;1096;103219;-78
2021/05/24 03:45:52;;;;;;;4.08;3.10;;;;;;;9.53;61.32;100636.86;153931;1101;103187;-75
2021/05/24 03:48:56;;;;;;;4.20;2.77;;;;;;;9.68;61.19;100637.28;153950;1096;103212;-74
2021/05/24 03:51:59;;;;;;;6.70;3.40;;;;;;;9.93;61.24;100644.77;153960;1101;103496;-75
2021/05/24 03:55:03;;;;;;;4.30;3.27;;;;;;;10.19;61.09;100642.37;153942;1096;103554;-75
2021/05/24 03:58:07;;;;;;;4.75;3.20;;;;;;;10.45;60.87;100648.97;153952;1095;103103;-74
2021/05/24 04:05:31;;;;;;;4.28;2.88;;;;;;;11.11;61.36;100642.77;153969;1101;103168;-74
2021/05/24 04:08:37;;;;;;;3.97;2.83;;;;;;;11.48;60.73;100644.55;153958;1101;103170;-74
2021/05/24 04:11:40;;;;;;;6.35;3.35;;;;;;;11.83;61.12;100638.41;153946;1101;103131;-83
2021/05/24 04:14:44;;;;;;;7.33;3.13;;;;;;;12.16;61.38;100644.09;154004;1096;103221;-77
2021/05/24 04:17:49;;;;;;;5.85;3.00;;;;;;;12.45;61.09;100643.84;153949;1101;103267;-77
2021/05/24 04:20:53;;;;;;;4.05;3.25;;;;;;;12.68;60.52;100637.95;153956;1101;103215;-77
2021/05/24 04:23:56;;;;;;;4.93;3.67;;;;;;;12.90;61.06;100642.80;153979;1101;103118;-76
2021/05/24 04:27:00;;;;;;;5.65;3.55;;;;;;;13.11;60.62;100642.41;153954;1096;103170;-75
2021/05/24 04:30:05;;;;;;;4.65;3.75;;;;;;;13.30;60.78;100644.03;153970;1101;103218;-76
2021/05/24 04:33:09;;;;;;;5.80;3.60;;;;;;;13.51;61.18;100646.28;153994;1095;103289;-76
2021/05/24 04:36:12;;;;;;;4.70;3.90;;;;;;;13.70;61.10;100650.53;153973;1101;103575;-78
2021/05/24 04:39:16;;;;;;;4.58;3.93;;;;;;;13.85;61.00;100641.83;153951;1101;103206;-75
2021/05/24 04:42:21;;;;;;;6.27;4.03;;;;;;;13.97;61.07;100648.55;153948;1096;103630;-77
2021/05/24 04:45:24;;;;;;;6.38;3.60;;;;;;;14.14;60.73;100647.59;153954;1101;103218;-78
2021/05/24 04:48:28;;;;;;;4.80;3.97;;;;;;;14.32;60.80;100647.42;153957;1096;103260;-76
2021/05/24 04:51:32;;;;;;;4.20;3.60;;;;;;;14.45;60.74;100644.23;154158;1101;103116;-76
2021/05/24 04:54:35;;;;;;;5.70;3.93;;;;;;;14.57;60.47;100646.58;153956;1101;103099;-75
2021/05/24 04:57:39;;;;;;;4.40;3.00;;;;;;;14.69;60.63;100640.70;153941;1096;103187;-77
2021/05/24 05:00:43;;;;;;;4.05;3.05;;;;;;;14.87;60.58;100635.11;153999;1094;103139;-75
2021/05/24 05:03:46;;;;;;;5.00;3.80;;;;;;;15.09;60.49;100635.41;153931;1096;103279;-74
2021/05/24 05:06:50;;;;;;;5.45;4.10;;;;;;;15.29;60.27;100641.20;153997;1101;103128;-76
2021/05/24 05:09:53;;;;;;;4.70;3.57;;;;;;;15.47;60.27;100644.48;153958;1096;103103;-75
2021/05/24 05:12:57;;;;;;;6.98;4.40;;;;;;;15.57;60.49;100651.48;153954;1094;103221;-75
2021/05/24 05:16:00;;;;;;;7.97;5.90;;;;;;;15.58;60.13;100656.69;153970;1101;103216;-76
2021/05/24 05:19:04;;;;;;;5.13;4.03;;;;;;;15.60;60.39;100669.97;153909;1094;103279;-75
2021/05/24 05:22:08;;;;;;;5.63;4.10;;;;;;;15.62;59.93;100663.39;153950;1095;103109;-76
2021/05/24 05:25:13;;;;;;;5.07;4.03;;;;;;;15.61;59.44;100659.03;153937;1101;103136;-76
2021/05/24 05:28:16;;;;;;;4.48;3.68;;;;;;;15.58;59.73;100666.61;153952;1101;103120;-76
2021/05/24 05:31:20;;;;;;;4.17;3.27;;;;;;;15.60;60.30;100668.11;153946;1096;103216;-77
2021/05/24 05:34:23;;;;;;;6.97;4.43;;;;;;;15.66;59.75;100664.70;153950;1096;103304;-76
2021/05/24 05:37:27;;;;;;;5.07;3.80;;;;;;;15.69;59.73;100669.75;153963;1095;103104;-77
2021/05/24 05:40:32;;;;;;;6.48;4.03;;;;;;;15.71;59.53;100667.72;153961;1096;103151;-77
2021/05/24 05:43:35;;;;;;;6.00;3.90;;;;;;;15.76;59.72;100678.00;153934;1101;103125;-78
2021/05/24 05:46:39;;;;;;;6.43;4.18;;;;;;;15.77;59.87;100673.45;153998;1101;103220;-77
2021/05/24 05:49:47;;;;;;;7.30;4.17;;;;;;;15.75;59.91;100672.78;153918;1101;103206;-75
2021/05/24 05:52:51;;;;;;;5.00;4.13;;;;;;;15.69;60.18;100680.51;153990;1101;103247;-80
2021/05/24 05:55:55;;;;;;;7.10;4.37;;;;;;;15.74;60.47;100681.86;153939;1101;103192;-75
2021/05/24 05:58:58;;;;;;;5.75;4.28;;;;;;;15.74;60.49;100681.86;153943;1096;103122;-76
2021/05/24 06:02:02;;;;;;;4.83;3.48;;;;;;;15.74;59.78;100681.86;154001;1101;103244;-75
2021/05/24 06:05:06;;;;;;;5.93;4.23;;;;;;;15.82;59.68;100679.11;153993;1101;103259;-76
2021/05/24 06:08:10;;;;;;;4.50;3.30;;;;;;;15.90;60.26;100684.47;153956;1101;103237;-76
2021/05/24 06:11:14;;;;;;;4.33;3.60;;;;;;;15.95;59.79;100679.38;153966;1101;103147;-76
2021/05/24 06:14:17;;;;;;;6.25;4.75;;;;;;;15.99;59.38;100685.24;153955;1096;103155;-76
2021/05/24 06:17:21;;;;;;;4.20;3.63;;;;;;;15.98;59.95;100688.97;153952;1101;103222;-76
2021/05/24 06:20:25;;;;;;;6.90;4.80;;;;;;;15.97;59.74;100693.48;154047;1101;103220;-74
2021/05/24 06:23:28;;;;;;;6.75;4.20;;;;;;;15.94;60.22;100701.94;153980;1101;103162;-79
2021/05/24 06:26:32;;;;;;;5.43;3.93;;;;;;;15.89;59.73;100697.06;154019;1096;103151;-78
2021/05/24 06:29:35;;;;;;;10.40;9.30;;;;;;;15.89;59.61;100704.31;153885;1101;104203;-77
2021/05/24 06:32:39;;;;;;;5.03;4.53;;;;;;;15.87;59.59;100706.34;153978;1096;103139;-81
2021/05/24 06:35:42;;;;;;;9.08;7.38;;;;;;;15.84;59.49;100717.45;153977;1101;103171;-77
2021/05/24 06:38:46;;;;;;;6.73;4.37;;;;;;;15.85;60.22;100706.52;154005;1095;103554;-78
2021/05/24 06:41:50;;;;;;;4.50;3.50;;;;;;;15.87;59.25;100719.80;154077;1101;103234;-78
2021/05/24 06:44:54;;;;;;;3.58;2.85;;;;;;;15.89;58.83;100709.69;154067;1096;103107;-78
2021/05/24 06:47:58;;;;;;;8.78;5.15;;;;;;;15.90;59.33;100709.52;154124;1101;103247;-78
2021/05/24 06:51:01;;;;;;;13.07;6.93;;;;;;;15.95;58.91;100714.36;154056;1101;103217;-78
2021/05/24 06:54:05;;;;;;;5.65;3.70;;;;;;;15.97;58.76;100717.71;154054;1101;103266;-79
2021/05/24 06:57:09;;;;;;;4.80;2.80;;;;;;;15.98;59.08;100722.09;153996;1095;103230;-77
2021/05/24 07:00:15;;;;;;;7.10;4.50;;;;;;;16.03;58.98;100718.86;153932;1101;103135;-78
2021/05/24 07:03:18;;;;;;;4.13;2.20;;;;;;;16.04;58.50;100726.77;153963;1101;103227;-78
2021/05/24 07:06:22;;;;;;;2.87;2.13;;;;;;;16.08;58.82;100728.08;153929;1094;103359;-78
2021/05/24 07:09:25;;;;;;;3.50;2.27;;;;;;;16.15;58.51;100727.36;153996;1101;103102;-79
2021/05/24 07:12:29;;;;;;;3.30;2.20;;;;;;;16.21;59.12;100729.38;154013;1101;103136;-78
2021/05/24 07:15:33;;;;;;;3.43;1.97;;;;;;;16.25;58.75;100741.45;154004;1101;103264;-77
2021/05/24 07:18:38;;;;;;;4.23;2.60;;;;;;;16.31;58.03;100743.42;153936;1095;103502;-78
2021/05/24 07:21:42;;;;;;;2.73;2.13;;;;;;;16.33;58.85;100748.64;153953;1096;103246;-78
2021/05/24 07:24:46;;;;;;;2.50;1.63;;;;;;;16.39;58.19;100751.44;154022;1101;103231;-79
2021/05/24 07:27:49;;;;;;;1.73;1.60;;;;;;;16.43;57.67;100757.31;153970;1096;103141;-77
2021/05/24 07:30:53;;;;;;;2.25;1.68;;;;;;;16.48;57.86;100744.98;153926;1095;103176;-78
2021/05/24 07:33:56;;;;;;;2.30;1.70;;;;;;;16.53;57.32;100748.99;154025;1096;103119;-77
2021/05/24 07:37:01;;;;;;;3.00;1.65;;;;;;;16.56;57.44;100745.95;153954;1095;103259;-77
2021/05/24 07:40:06;;;;;;;3.57;2.30;;;;;;;16.66;57.84;100749.23;154050;1101;103131;-78
2021/05/24 07:43:10;;;;;;;2.65;2.43;;;;;;;16.73;57.80;100750.19;154002;1096;103560;-78
2021/05/24 07:46:14;;;;;;;3.35;2.60;;;;;;;16.79;58.01;100749.45;153894;1096;103192;-78
2021/05/24 07:49:17;;;;;;;2.70;2.50;;;;;;;16.86;57.83;100747.75;153966;1101;103201;-78
2021/05/24 07:52:21;;;;;;;4.08;2.25;;;;;;;17.00;58.13;100742.58;153975;1101;103257;-78
2021/05/24 07:55:25;;;;;;;3.03;2.30;;;;;;;17.13;58.15;100745.48;153951;1101;103221;-78
2021/05/24 07:58:30;;;;;;;3.60;2.80;;;;;;;17.28;57.18;100742.77;153967;1095;103240;-78
2021/05/24 08:01:33;;;;;;;2.25;2.05;;;;;;;17.33;57.85;100740.36;153991;1096;104207;-78
2021/05/24 08:04:37;;;;;;;2.50;1.70;;;;;;;17.46;57.21;100739.73;153932;1096;103220;-78
2021/05/24 08:07:41;;;;;;;1.90;1.70;;;;;;;17.63;57.06;100737.67;153964;1101;103186;-78
2021/05/24 08:10:45;;;;;;;1.90;1.20;;;;;;;17.74;56.55;100744.44;153966;1101;103133;-79
2021/05/24 08:13:50;;;;;;;1.93;1.40;;;;;;;17.79;56.09;100745.55;153959;1095;103292;-78
2021/05/24 08:16:55;;;;;;;1.57;1.10;;;;;;;17.83;55.98;100748.71;153909;1101;103140;-78
2021/05/24 08:19:58;;;;;;;2.18;1.10;;;;;;;17.84;56.20;100747.70;153986;1096;103158;-78
2021/05/24 08:23:02;;;;;;;1.30;0.90;;;;;;;17.86;54.67;100745.68;153956;1095;103397;-78
2021/05/24 08:26:07;;;;;;;2.33;0.93;;;;;;;17.91;55.56;100755.91;154043;1094;103152;-78
2021/05/24 08:29:10;;;;;;;1.57;1.00;;;;;;;17.95;55.38;100749.92;153970;1101;103140;-78
2021/05/24 08:32:14;;;;;;;1.58;1.00;;;;;;;18.00;54.24;100747.50;153937;1096;103139;-77
2021/05/24 08:35:17;;;;;;;1.33;1.10;;;;;;;18.08;55.36;100734.92;153981;1096;103128;-79
2021/05/24 08:38:21;;;;;;;1.43;1.30;;;;;;;18.18;54.92;100730.03;153953;1096;103199;-78
2021/05/24 08:41:24;;;;;;;1.90;1.60;;;;;;;18.25;54.99;100731.78;153967;1101;103216;-78
2021/05/24 08:44:29;;;;;;;3.50;1.43;;;;;;;18.32;54.25;100742.67;153964;1096;103120;-78
2021/05/24 08:47:33;;;;;;;1.60;1.35;;;;;;;18.37;54.71;100742.91;153920;1096;103294;-78
2021/05/24 08:50:37;;;;;;;1.28;1.00;;;;;;;18.45;54.47;100740.07;153931;1101;103200;-78
2021/05/24 08:53:41;;;;;;;2.40;1.25;;;;;;;18.65;54.22;100725.94;153961;1101;103245;-78
2021/05/24 08:56:44;;;;;;;1.63;1.20;;;;;;;18.83;53.94;100728.19;153968;1096;103227;-77
2021/05/24 08:59:48;;;;;;;2.13;0.97;;;;;;;18.96;53.25;100722.05;153977;1094;103230;-78
2021/05/24 09:02:53;;;;;;;1.50;1.33;;;;;;;19.05;53.35;100720.84;153985;1096;103046;-79
2021/05/24 09:06:01;;;;;;;1.43;0.90;;;;;;;19.23;53.04;100723.06;153990;1095;103104;-78
2021/05/24 09:09:13;;;;;;;2.10;0.87;;;;;;;19.48;51.47;100709.88;153947;1101;103266;-77
2021/05/24 09:12:19;;;;;;;;;;;;;;;19.60;51.49;100700.14;154006;1101;103243;-76
2021/05/24 09:15:26;;;;;;;4.50;0.90;;;;;;;19.75;51.82;100691.91;153966;1101;103165;-77
2021/05/24 09:18:29;;;;;;;0.60;0.60;;;;;;;19.95;51.66;100701.97;153948;1101;103128;-77
2021/05/24 09:21:33;;;;;;;1.23;0.80;;;;;;;20.07;50.99;100700.31;153968;1096;103157;-77
2021/05/24 09:24:38;;;;;;;1.10;0.70;;;;;;;20.14;51.43;100686.80;153973;1101;103720;-77
2021/05/24 09:27:45;;;;;;;1.23;0.88;;;;;;;20.15;51.27;100686.61;153997;1101;103142;-77
2021/05/24 09:30:54;;;;;;;0.67;0.67;;;;;;;20.28;51.11;100688.48;154007;1101;103123;-77
2021/05/24 09:34:00;;;;;;;1.17;0.77;;;;;;;20.37;50.40;100681.83;153974;1101;103196;-78
2021/05/24 09:37:04;;;;;;;0.98;0.70;;;;;;;20.45;50.02;100688.09;153929;1101;103256;-81
2021/05/24 09:40:21;;;;;;;1.30;0.90;;;;;;;20.48;49.94;100676.85;153955;1101;103168;-78
2021/05/24 09:43:34;;;;;;;1.37;0.60;;;;;;;20.54;50.76;100676.84;154008;1095;103230;-77
2021/05/24 09:46:40;;;;;;;1.00;0.90;;;;;;;20.65;49.62;100666.43;153954;1101;103252;-78
2021/05/24 09:49:45;;;;;;;1.15;0.90;;;;;;;20.78;50.16;100666.42;153988;1101;103144;-78
2021/05/24 09:52:50;;;;;;;1.10;0.70;;;;;;;20.86;49.10;100673.50;153976;1096;103214;-77
2021/05/24 09:55:53;;;;;;;0.80;0.60;;;;;;;20.96;49.10;100676.64;153977;1101;103296;-78
2021/05/24 09:59:06;;;;;;;1.35;0.70;;;;;;;21.18;49.46;100677.20;154016;1101;103224;-79
2021/05/24 10:02:12;;;;;;;1.00;0.75;;;;;;;21.30;48.71;100677.38;153995;1096;103261;-78
2021/05/24 10:05:16;;;;;;;1.53;0.80;;;;;;;21.37;48.42;100675.48;153929;1101;103220;-77
2021/05/24 10:08:20;;;;;;;1.45;0.90;;;;;;;21.46;47.62;100687.81;153983;1101;103216;-77
2021/05/24 10:11:24;;;;;;;1.10;0.78;;;;;;;21.44;47.97;100681.77;153956;1095;103279;-77
2021/05/24 10:14:28;;;;;;;1.20;0.90;;;;;;;21.45;47.31;100669.84;153952;1101;103128;-77
2021/05/24 10:17:32;;;;;;;0.90;0.68;;;;;;;21.54;47.72;100673.98;153954;1096;103221;-76
2021/05/24 10:20:36;;;;;;;1.67;0.63;;;;;;;21.67;47.71;100670.39;153963;1101;103151;-77
2021/05/24 10:23:40;;;;;;;0.93;0.60;;;;;;;21.75;47.43;100672.02;153953;1096;103148;-77
2021/05/24 10:26:45;;;;;;;2.23;0.98;;;;;;;21.89;47.43;100673.60;153974;1101;103263;-77
2021/05/24 10:29:48;;;;;;;1.03;0.70;;;;;;;22.04;46.67;100683.36;154034;1101;103195;-78
2021/05/24 10:32:57;;;;;;;1.13;0.60;;;;;;;22.07;46.53;100681.02;154024;1095;103170;-76
2021/05/24 10:36:17;;;;;;;1.28;0.90;;;;;;;22.09;46.77;100687.06;153977;1101;103121;-78
2021/05/24 10:39:24;;;;;;;0.95;0.70;;;;;;;22.08;46.07;100679.98;153977;1101;103131;-78
2021/05/24 10:42:39;;;;;;;3.05;0.90;;;;;;;22.06;46.43;100660.34;153979;1101;103199;-77
2021/05/24 10:45:43;;;;;;;1.90;0.70;;;;;;;22.18;46.40;100665.08;153980;1101;103152;-77
2021/05/24 10:48:55;;;;;;;1.78;0.70;;;;;;;22.18;46.32;100665.91;153963;1101;103560;-77
2021/05/24 10:52:10;;;;;;;2.90;1.88;;;;;;;22.18;45.93;100655.03;153965;1096;103221;-77
2021/05/24 10:55:42;;;;;;;1.47;1.00;;;;;;;22.26;46.02;100660.22;154000;1101;103125;-77
2021/05/24 10:58:46;;;;;;;2.00;0.70;;;;;;;22.34;44.68;100670.84;153798;1096;103362;-78
2021/05/24 11:02:07;;;;;;;1.43;0.83;;;;;;;22.37;45.16;100679.61;153986;1101;103221;-78
2021/05/24 11:05:28;;;;;;;5.98;2.70;;;;;;;22.53;45.16;100654.58;153963;1101;103122;-78
2021/05/24 11:08:31;;;;;;;2.53;1.30;;;;;;;22.65;44.77;100655.53;154021;1096;103243;-78
2021/05/24 11:11:37;;;;;;;3.43;1.60;;;;;;;22.80;45.47;100657.06;153946;1096;103224;-79
2021/05/24 11:15:08;;;;;;;11.90;5.38;;;;;;;22.88;44.91;100652.17;153939;1101;103212;-78
2021/05/24 11:18:20;;;;;;;2.67;1.53;;;;;;;22.99;44.64;100661.47;154005;1096;103222;-78
2021/05/24 11:21:26;;;;;;;2.00;0.85;;;;;;;22.97;44.62;100654.59;153956;1096;103221;-78
2021/05/24 11:24:39;;;;;;;1.10;0.80;;;;;;;22.99;44.50;100650.58;153978;1096;103227;-77
2021/05/24 11:28:12;;;;;;;0.85;0.60;;;;;;;22.91;43.82;100654.42;153975;1101;103171;-78
2021/05/24 11:31:18;;;;;;;0.83;0.60;;;;;;;22.77;43.65;100642.03;153940;1101;103174;-78
2021/05/24 11:34:32;;;;;;;1.43;0.50;;;;;;;22.71;43.33;100627.43;153996;1101;103133;-78
2021/05/24 11:37:44;;;;;;;0.90;0.60;;;;;;;22.70;43.37;100630.37;153967;1096;103139;-78
2021/05/24 11:41:11;;;;;;;2.85;1.10;;;;;;;22.73;42.98;100624.49;153971;1101;103125;-78
2021/05/24 11:44:14;;;;;;;2.60;0.80;;;;;;;22.72;43.12;100633.69;153989;1095;103144;-77
2021/05/24 11:47:20;;;;;;;0.70;0.60;;;;;;;22.68;43.36;100625.14;154007;1101;103122;-77
2021/05/24 11:50:26;;;;;;;2.60;0.90;;;;;;;22.61;42.58;100621.65;153964;1101;103488;-83
2021/05/24 11:53:30;;;;;;;1.13;0.60;;;;;;;22.53;43.55;100616.50;153963;1095;103129;-78
2021/05/24 11:56:46;;;;;;;2.17;0.80;;;;;;;22.50;42.53;100614.25;153932;1096;103125;-77
2021/05/24 11:59:50;;;;;;;0.70;0.50;;;;;;;22.56;42.76;100607.91;154001;1096;103091;-77
2021/05/24 12:03:02;;;;;;;1.43;0.70;;;;;;;22.71;42.61;100592.06;153929;1096;103281;-77
2021/05/24 12:06:06;;;;;;;1.38;0.70;;;;;;;22.79;42.53;100584.64;153949;1101;103216;-78
2021/05/24 12:09:10;;;;;;;1.20;0.80;;;;;;;22.88;42.54;100586.02;153938;1096;103509;-78
2021/05/24 12:12:16;;;;;;;1.97;0.63;;;;;;;23.00;42.37;100586.94;153953;1096;103221;-77
2021/05/24 12:15:19;;;;;;;2.15;1.00;;;;;;;23.03;41.67;100585.67;153992;1095;103694;-78
2021/05/24 12:18:28;;;;;;;1.33;0.80;;;;;;;22.91;41.86;100577.41;153938;1095;103243;-75
2021/05/24 12:21:37;;;;;;;0.67;0.57;;;;;;;22.85;41.94;100581.05;154052;1096;103218;-76
2021/05/24 12:24:42;;;;;;;2.50;0.83;;;;;;;22.77;41.57;100579.45;154101;1101;103221;-77
2021/05/24 12:27:46;;;;;;;0.70;0.60;;;;;;;22.72;41.92;100566.51;154053;1101;103213;-78
2021/05/24 12:30:52;;;;;;;0.55;0.55;;;;;;;22.81;41.77;100563.52;153952;1096;103139;-77
2021/05/24 12:33:57;;;;;;;0.87;0.70;;;;;;;22.81;41.35;100552.63;153982;1101;103270;-77
2021/05/24 12:37:01;;;;;;;1.28;0.70;;;;;;;22.66;40.52;100548.38;154004;1101;103126;-77
2021/05/24 12:40:07;;;;;;;0.70;0.70;;;;;;;22.55;40.81;100547.22;154065;1101;103102;-78
2021/05/24 12:43:11;;;;;;;0.70;0.60;;;;;;;22.50;41.33;100547.09;153997;1101;103150;-77
2021/05/24 12:46:16;;;;;;;0.60;0.50;;;;;;;22.47;41.51;100535.83;153923;1101;103311;-76
2021/05/24 12:49:22;;;;;;;0.60;0.55;;;;;;;22.32;40.65;100547.05;153987;1101;103184;-77
2021/05/24 12:52:30;;;;;;;2.07;0.70;;;;;;;22.17;40.93;100555.50;153994;1094;103247;-78
2021/05/24 12:55:34;;;;;;;1.33;0.70;;;;;;;22.04;41.02;100552.92;153936;1101;103224;-78
2021/05/24 12:58:39;;;;;;;2.40;0.70;;;;;;;22.00;40.70;100547.09;153934;1095;103103;-77
2021/05/24 13:01:43;;;;;;;1.10;0.80;;;;;;;22.04;40.34;100542.88;153984;1101;103215;-77
2021/05/24 13:04:47;;;;;;;2.00;0.60;;;;;;;22.04;40.98;100542.88;153982;1101;103219;-77
2021/05/24 13:07:53;;;;;;;1.30;0.93;;;;;;;21.96;41.02;100552.14;154037;1101;103221;-78
2021/05/24 13:11:01;;;;;;;1.80;0.70;;;;;;;21.98;40.79;100540.20;153957;1095;103128;-78
2021/05/24 13:14:08;;;;;;;1.30;0.80;;;;;;;21.95;39.04;100546.92;154026;1101;103169;-77
2021/05/24 13:17:23;;;;;;;3.18;1.40;;;;;;;21.89;40.48;100540.48;154047;1096;103100;-77
2021/05/24 13:24:01;;;;;;;1.25;0.70;;;;;;;21.76;40.20;100537.86;153992;1101;103135;-77
2021/05/24 13:27:23;;;;;;;1.50;0.60;;;;;;;21.85;39.97;100524.86;153981;1096;103132;-76
2021/05/24 13:30:28;;;;;;;1.20;0.70;;;;;;;21.94;40.32;100518.92;153944;1101;103250;-77
2021/05/24 13:33:37;;;;;;;4.13;1.27;;;;;;;22.02;39.89;100497.94;154019;1101;103192;-77
2021/05/24 13:36:45;;;;;;;1.70;0.70;;;;;;;22.08;39.85;100497.90;153962;1101;103230;-78
2021/05/24 13:39:59;;;;;;;1.85;0.70;;;;;;;22.25;40.10;100487.32;153949;1096;103194;-79
2021/05/24 13:43:03;;;;;;;2.33;1.10;;;;;;;22.33;40.01;100470.70;153939;1095;103122;-77
2021/05/24 13:46:07;;;;;;;1.98;0.80;;;;;;;22.29;39.67;100469.50;153935;1101;103139;-77
2021/05/24 13:49:12;;;;;;;1.17;0.87;;;;;;;22.39;39.81;100462.72;153973;1096;103224;-77
2021/05/24 13:52:15;;;;;;;1.47;0.70;;;;;;;22.33;38.79;100478.86;153973;1096;103416;-77
2021/05/24 13:55:19;;;;;;;1.08;0.70;;;;;;;22.33;39.32;100470.70;153966;1101;103558;-77
2021/05/24 13:58:22;;;;;;;1.83;0.67;;;;;;;22.40;39.13;100458.92;153962;1101;103131;-78
2021/05/24 14:01:26;;;;;;;1.13;0.70;;;;;;;22.43;38.62;100445.71;153992;1101;103219;-77
2021/05/24 14:04:30;;;;;;;0.87;0.70;;;;;;;22.43;39.04;100442.99;153950;1101;103113;-79
2021/05/24 14:07:33;;;;;;;0.90;0.80;;;;;;;22.51;39.59;100452.73;153936;1096;103272;-76
2021/05/24 14:10:37;;;;;;;1.27;0.70;;;;;;;22.48;39.06;100448.59;155113;1101;103221;-77
2021/05/24 14:13:41;;;;;;;1.00;0.80;;;;;;;22.41;39.62;100445.11;154476;1095;103094;-75